createdAt,value
2022-10-09T00:00:23.812Z,11.90
2022-10-09T00:03:28.028Z,11.80
2022-10-09T00:06:33.114Z,11.80
2022-10-09T00:09:35.091Z,11.80
2022-10-09T00:12:36.963Z,11.90
2022-10-09T00:15:44.143Z,11.80
2022-10-09T00:18:46.523Z,11.70
2022-10-09T00:21:48.497Z,11.70
2022-10-09T00:24:50.473Z,11.60
2022-10-09T00:27:52.396Z,11.70
2022-10-09T00:30:55.174Z,11.60
2022-10-09T00:34:00.268Z,11.60
2022-10-09T00:37:02.255Z,11.50
2022-10-09T00:40:04.522Z,11.30
2022-10-09T00:43:18.409Z,11.40
2022-10-09T00:46:35.542Z,11.30
2022-10-09T00:49:37.541Z,11.10
2022-10-09T00:52:40.043Z,11.30
2022-10-09T00:55:42.673Z,11.30
2022-10-09T00:58:44.981Z,11.40
2022-10-09T01:01:47.634Z,11.30
2022-10-09T01:04:49.586Z,11.20
2022-10-09T01:08:43.591Z,11.20
2022-10-09T01:12:15.030Z,11.20
2022-10-09T01:15:39.405Z,11.10
2022-10-09T01:18:49.110Z,11.10
2022-10-09T01:21:57.115Z,11.00
2022-10-09T01:25:10.993Z,11.10
2022-10-09T01:28:14.576Z,11.10
2022-10-09T01:31:17.960Z,11.00
2022-10-09T01:34:23.501Z,11.10
2022-10-09T01:37:25.532Z,11.10
2022-10-09T01:40:29.185Z,11.10
2022-10-09T01:43:30.999Z,11.10
2022-10-09T01:46:33.428Z,11.00
2022-10-09T01:49:54.196Z,11.00
2022-10-09T01:53:00.339Z,10.90
2022-10-09T01:56:09.263Z,11.10
2022-10-09T01:59:16.085Z,11.00
2022-10-09T02:02:19.723Z,10.90
2022-10-09T02:05:25.793Z,10.90
2022-10-09T02:08:29.969Z,10.80
2022-10-09T02:11:33.276Z,10.80
2022-10-09T02:14:35.851Z,10.80
2022-10-09T02:17:43.965Z,10.70
2022-10-09T02:20:52.918Z,10.80
2022-10-09T02:23:56.147Z,10.70
2022-10-09T02:27:02.038Z,10.80
2022-10-09T02:30:07.475Z,10.80
2022-10-09T02:33:09.425Z,10.70
2022-10-09T02:36:11.703Z,10.70
2022-10-09T02:39:13.685Z,10.70
2022-10-09T02:42:15.847Z,10.70
2022-10-09T02:45:17.762Z,10.60
2022-10-09T02:48:19.932Z,10.70
2022-10-09T02:51:21.920Z,10.60
2022-10-09T02:54:23.793Z,10.60
2022-10-09T02:57:25.653Z,10.40
2022-10-09T03:00:27.571Z,10.60
2022-10-09T03:03:29.368Z,10.30
2022-10-09T03:06:31.422Z,10.20
2022-10-09T03:09:33.943Z,10.30
2022-10-09T03:12:35.906Z,10.20
2022-10-09T03:15:37.757Z,10.10
2022-10-09T03:18:40.327Z,10.30
2022-10-09T03:21:45.519Z,10.30
2022-10-09T03:24:47.371Z,10.30
2022-10-09T03:27:49.210Z,10.30
2022-10-09T03:30:54.231Z,10.40
2022-10-09T03:33:56.085Z,10.30
2022-10-09T03:37:00.148Z,10.10
2022-10-09T03:40:02.085Z,10.20
2022-10-09T03:43:03.955Z,10.20
2022-10-09T03:46:07.545Z,10.20
2022-10-09T03:49:09.591Z,10.30
2022-10-09T03:52:11.516Z,10.20
2022-10-09T03:55:13.558Z,10.10
2022-10-09T03:58:15.433Z,10.10
2022-10-09T04:01:17.373Z,10.20
2022-10-09T04:04:19.221Z,10.20
2022-10-09T04:07:21.102Z,10.20
2022-10-09T04:10:22.961Z,10.00
2022-10-09T04:13:24.867Z,10.00
2022-10-09T04:16:26.784Z,9.90
2022-10-09T04:19:29.105Z,10.00
2022-10-09T04:22:31.056Z,10.10
2022-10-09T04:25:32.916Z,10.00
2022-10-09T04:28:34.845Z,9.90
2022-10-09T04:31:36.917Z,9.90
2022-10-09T04:34:38.843Z,10.00
2022-10-09T04:37:40.739Z,10.00
2022-10-09T04:40:42.668Z,9.90
2022-10-09T04:43:44.532Z,9.90
2022-10-09T04:46:46.368Z,9.90
2022-10-09T04:49:48.184Z,9.80
2022-10-09T04:52:52.599Z,9.80
2022-10-09T04:55:54.494Z,9.90
2022-10-09T04:58:56.327Z,9.80
2022-10-09T05:01:58.245Z,9.70
2022-10-09T05:05:00.099Z,9.80
2022-10-09T05:08:01.999Z,9.70
2022-10-09T05:11:09.939Z,9.70
2022-10-09T05:14:11.912Z,9.70
2022-10-09T05:17:14.917Z,9.70
2022-10-09T05:20:17.196Z,9.60
2022-10-09T05:23:21.357Z,9.50
2022-10-09T05:26:25.450Z,9.60
2022-10-09T05:29:27.296Z,9.50
2022-10-09T05:32:29.161Z,9.50
2022-10-09T05:35:30.957Z,9.40
2022-10-09T05:38:33.416Z,9.40
2022-10-09T05:41:35.204Z,9.50
2022-10-09T05:44:37.080Z,9.40
2022-10-09T05:47:38.933Z,9.50
2022-10-09T05:50:43.434Z,9.40
2022-10-09T05:53:46.671Z,9.40
2022-10-09T05:56:48.501Z,9.40
2022-10-09T05:59:50.535Z,9.40
2022-10-09T06:02:52.805Z,9.50
2022-10-09T06:06:00.724Z,9.50
2022-10-09T06:09:02.662Z,9.60
2022-10-09T06:12:04.592Z,9.60
2022-10-09T06:15:07.051Z,9.60
2022-10-09T06:18:08.900Z,9.60
2022-10-09T06:21:14.612Z,9.70
2022-10-09T06:24:24.495Z,9.80
2022-10-09T06:27:29.937Z,9.80
2022-10-09T06:30:37.690Z,9.90
2022-10-09T06:33:42.493Z,9.90
2022-10-09T06:36:44.362Z,9.90
2022-10-09T06:39:46.184Z,10.20
2022-10-09T06:42:48.332Z,10.50
2022-10-09T06:45:52.560Z,10.50
2022-10-09T06:48:54.493Z,10.70
2022-10-09T06:51:56.352Z,10.90
2022-10-09T06:54:58.200Z,11.10
2022-10-09T06:58:00.402Z,11.40
2022-10-09T07:01:06.378Z,11.20
2022-10-09T07:04:14.194Z,11.60
2022-10-09T07:07:16.069Z,11.90
2022-10-09T07:10:21.681Z,12.20
2022-10-09T07:13:29.299Z,13.00
2022-10-09T07:16:34.100Z,14.00
2022-10-09T07:19:35.959Z,14.10
2022-10-09T07:22:37.917Z,13.70
2022-10-09T07:25:39.734Z,14.40
2022-10-09T07:28:42.356Z,15.40
2022-10-09T07:31:45.057Z,16.00
2022-10-09T07:34:46.999Z,16.90
2022-10-09T07:37:48.872Z,17.20
2022-10-09T07:40:54.317Z,17.60
2022-10-09T07:43:56.666Z,18.20
2022-10-09T07:46:58.478Z,18.20
2022-10-09T07:50:00.380Z,18.60
2022-10-09T07:53:02.289Z,19.00
2022-10-09T07:56:04.905Z,19.10
2022-10-09T07:59:15.342Z,19.40
2022-10-09T08:02:17.214Z,19.80
2022-10-09T08:05:19.145Z,20.00
2022-10-09T08:08:21.300Z,20.60
2022-10-09T08:11:24.755Z,20.60
2022-10-09T08:14:26.603Z,20.30
2022-10-09T08:17:28.516Z,20.90
2022-10-09T08:20:30.329Z,21.00
2022-10-09T08:23:33.016Z,21.00
2022-10-09T08:26:34.868Z,21.40
2022-10-09T08:29:40.052Z,21.40
2022-10-09T08:32:42.317Z,21.10
2022-10-09T08:35:44.112Z,21.60
2022-10-09T08:38:47.985Z,21.70
2022-10-09T08:41:55.444Z,22.10
2022-10-09T08:44:57.330Z,22.00
2022-10-09T08:48:07.093Z,21.50
2022-10-09T08:51:17.766Z,20.70
2022-10-09T08:54:26.489Z,21.00
2022-10-09T08:57:33.174Z,20.90
2022-10-09T09:00:58.693Z,21.20
2022-10-09T09:04:18.725Z,20.90
2022-10-09T09:07:39.349Z,21.20
2022-10-09T09:10:49.910Z,21.10
2022-10-09T09:14:26.281Z,20.90
2022-10-09T09:17:42.335Z,21.20
2022-10-09T09:21:13.469Z,20.80
2022-10-09T09:24:33.387Z,20.20
2022-10-09T09:27:36.226Z,21.20
2022-10-09T09:30:44.336Z,21.00
2022-10-09T09:33:58.570Z,21.00
2022-10-09T09:37:01.427Z,21.00
2022-10-09T09:43:26.376Z,20.80
2022-10-09T09:46:30.509Z,21.20
2022-10-09T09:49:32.491Z,20.90
2022-10-09T09:52:36.410Z,21.10
2022-10-09T09:55:38.356Z,21.50
2022-10-09T09:58:44.366Z,21.80
2022-10-09T10:01:46.584Z,21.70
2022-10-09T10:04:54.933Z,21.50
2022-10-09T10:07:56.902Z,21.90
2022-10-09T10:11:00.099Z,21.00
2022-10-09T10:14:07.441Z,20.90
2022-10-09T10:17:27.864Z,21.20
2022-10-09T10:20:32.172Z,21.40
2022-10-09T10:23:42.561Z,21.70
2022-10-09T10:26:51.137Z,21.80
2022-10-09T10:29:58.140Z,21.40
2022-10-09T10:33:13.186Z,21.50
2022-10-09T10:36:15.624Z,21.90
2022-10-09T10:39:52.354Z,22.40
2022-10-09T10:43:02.884Z,21.90
2022-10-09T10:46:19.025Z,21.60
2022-10-09T10:49:22.818Z,21.90
2022-10-09T11:03:32.497Z,21.70
2022-10-09T11:06:46.992Z,20.90
2022-10-09T11:10:27.013Z,20.60
2022-10-09T11:13:39.931Z,20.40
2022-10-09T11:16:53.035Z,20.60
2022-10-09T11:20:18.850Z,20.40
2022-10-09T11:23:32.822Z,20.60
2022-10-09T11:27:03.704Z,20.30
2022-10-09T11:30:09.084Z,20.00
2022-10-09T11:33:29.807Z,20.20
2022-10-09T11:36:38.263Z,20.00
2022-10-09T11:39:41.347Z,20.30
2022-10-09T11:42:55.214Z,20.20
2022-10-09T11:46:27.033Z,20.20
2022-10-09T11:49:34.482Z,20.40
2022-10-09T11:52:42.831Z,20.10
2022-10-09T11:55:44.854Z,20.40
2022-10-09T11:59:05.610Z,20.40
2022-10-09T12:02:26.925Z,20.50
2022-10-09T12:05:42.218Z,20.20
2022-10-09T12:09:06.237Z,20.50
2022-10-09T12:12:17.305Z,20.60
2022-10-09T12:15:35.826Z,20.20
2022-10-09T12:18:46.030Z,20.30
2022-10-09T12:21:54.011Z,20.50
2022-10-09T12:24:59.136Z,20.50
2022-10-09T12:28:01.718Z,20.40
2022-10-09T12:31:12.994Z,20.00
2022-10-09T12:34:34.627Z,20.30
2022-10-09T12:37:36.962Z,20.40
2022-10-09T12:40:44.571Z,20.20
2022-10-09T12:43:47.140Z,20.50
2022-10-09T12:46:49.159Z,20.50
2022-10-09T12:49:58.462Z,20.60
2022-10-09T12:53:02.013Z,20.50
2022-10-09T12:56:11.910Z,20.70
2022-10-09T12:59:14.835Z,20.60
2022-10-09T13:02:17.747Z,20.70
2022-10-09T13:05:19.996Z,20.50
2022-10-09T13:08:32.503Z,20.40
2022-10-09T13:11:42.618Z,20.50
2022-10-09T13:14:52.950Z,20.70
2022-10-09T13:17:54.809Z,20.70
2022-10-09T13:21:04.881Z,20.80
2022-10-09T13:24:10.646Z,20.90
2022-10-09T13:27:13.229Z,20.90
2022-10-09T13:30:15.120Z,21.00
2022-10-09T13:33:17.694Z,20.90
2022-10-09T13:36:20.576Z,21.00
2022-10-09T13:39:22.534Z,21.00
2022-10-09T13:42:28.397Z,21.10
2022-10-09T13:45:31.961Z,21.00
2022-10-09T13:48:36.479Z,20.90
2022-10-09T13:51:38.369Z,21.00
2022-10-09T13:54:40.212Z,20.90
2022-10-09T13:57:42.199Z,20.80
2022-10-09T14:00:45.516Z,21.00
2022-10-09T14:03:47.548Z,21.00
2022-10-09T14:06:49.641Z,20.80
2022-10-09T14:09:51.686Z,20.80
2022-10-09T14:12:53.657Z,20.80
2022-10-09T14:15:55.858Z,20.90
2022-10-09T14:18:59.523Z,21.00
2022-10-09T14:22:01.412Z,20.90
2022-10-09T14:25:03.733Z,21.00
2022-10-09T14:28:09.574Z,21.00
2022-10-09T14:31:11.994Z,20.90
2022-10-09T14:34:14.266Z,20.90
2022-10-09T14:37:29.604Z,20.80
2022-10-09T14:40:45.006Z,20.90
2022-10-09T14:43:48.443Z,20.90
2022-10-09T14:46:50.329Z,20.80
2022-10-09T14:49:52.234Z,20.70
2022-10-09T14:52:54.139Z,20.70
2022-10-09T14:55:56.061Z,20.50
2022-10-09T14:58:59.598Z,20.40
2022-10-09T15:02:01.471Z,20.40
2022-10-09T15:05:04.250Z,20.40
2022-10-09T15:08:06.227Z,20.40
2022-10-09T15:11:10.315Z,20.40
2022-10-09T15:14:12.360Z,20.40
2022-10-09T15:17:14.250Z,20.30
2022-10-09T15:20:16.343Z,20.10
2022-10-09T15:23:18.248Z,20.20
2022-10-09T15:26:20.141Z,20.00
2022-10-09T15:29:22.168Z,20.10
2022-10-09T15:32:24.959Z,20.00
2022-10-09T15:35:27.160Z,19.90
2022-10-09T15:38:29.198Z,19.90
2022-10-09T15:41:32.929Z,19.90
2022-10-09T15:44:34.806Z,19.80
2022-10-09T15:47:50.542Z,19.80
2022-10-09T15:50:53.249Z,19.60
2022-10-09T15:53:55.109Z,19.50
2022-10-09T15:56:57.027Z,19.40
2022-10-09T15:59:58.932Z,19.40
2022-10-09T16:03:00.807Z,19.40
2022-10-09T16:06:05.315Z,19.20
2022-10-09T16:09:07.173Z,19.20
2022-10-09T16:12:11.600Z,19.10
2022-10-09T16:15:20.398Z,19.00
2022-10-09T16:18:23.233Z,19.00
2022-10-09T16:21:27.217Z,19.10
2022-10-09T16:24:29.045Z,18.80
2022-10-09T16:27:31.246Z,18.70
2022-10-09T16:30:37.534Z,18.50
2022-10-09T16:33:39.343Z,18.50
2022-10-09T16:36:41.435Z,18.40
2022-10-09T16:39:43.356Z,18.00
2022-10-09T16:42:45.260Z,17.80
2022-10-09T16:45:47.120Z,17.70
2022-10-09T16:48:50.357Z,17.40
2022-10-09T16:51:52.225Z,17.50
2022-10-09T16:54:57.090Z,17.40
2022-10-09T16:58:01.989Z,17.50
2022-10-09T17:01:09.432Z,17.40
2022-10-09T17:04:14.420Z,17.40
2022-10-09T17:07:16.261Z,17.40
2022-10-09T17:10:18.275Z,17.40
2022-10-09T17:13:20.146Z,17.30
2022-10-09T17:16:23.631Z,17.20
2022-10-09T17:19:25.493Z,17.10
2022-10-09T17:22:27.606Z,17.10
2022-10-09T17:25:30.499Z,17.00
2022-10-09T17:28:32.943Z,16.90
2022-10-09T17:31:34.982Z,16.90
2022-10-09T17:34:36.836Z,17.00
2022-10-09T17:37:38.695Z,16.70
2022-10-09T17:40:41.497Z,16.60
2022-10-09T17:43:43.426Z,16.50
2022-10-09T17:46:45.393Z,16.40
2022-10-09T17:49:47.502Z,16.40
2022-10-09T17:52:49.743Z,16.20
2022-10-09T17:55:53.308Z,16.20
2022-10-09T17:58:55.263Z,16.10
2022-10-09T18:01:57.169Z,16.20
2022-10-09T18:04:59.022Z,16.10
2022-10-09T18:08:00.940Z,16.00
2022-10-09T18:11:09.931Z,16.00
2022-10-09T18:14:12.049Z,16.00
2022-10-09T18:17:14.341Z,15.90
2022-10-09T18:20:16.577Z,16.00
2022-10-09T18:23:22.363Z,16.00
2022-10-09T18:26:24.748Z,15.90
2022-10-09T18:29:26.594Z,15.90
2022-10-09T18:32:28.783Z,15.80
2022-10-09T18:35:30.816Z,15.80
2022-10-09T18:38:33.758Z,15.60
2022-10-09T18:41:36.124Z,15.50
2022-10-09T18:44:38.905Z,15.50
2022-10-09T18:47:41.444Z,15.50
2022-10-09T18:50:44.703Z,15.50
2022-10-09T18:53:50.878Z,15.40
2022-10-09T18:56:53.376Z,15.40
2022-10-09T18:59:57.460Z,15.40
2022-10-09T19:02:59.329Z,15.20
2022-10-09T19:06:01.290Z,15.20
2022-10-09T19:09:03.982Z,15.20
2022-10-09T19:12:06.012Z,15.10
2022-10-09T19:15:12.115Z,15.20
2022-10-09T19:18:14.314Z,15.00
2022-10-09T19:21:16.524Z,14.90
2022-10-09T19:24:18.398Z,14.90
2022-10-09T19:27:23.406Z,14.90
2022-10-09T19:30:27.729Z,14.90
2022-10-09T19:33:29.652Z,14.90
2022-10-09T19:36:31.847Z,14.80
2022-10-09T19:39:33.695Z,14.70
2022-10-09T19:42:35.595Z,14.70
2022-10-09T19:45:37.565Z,14.70
2022-10-09T19:48:39.403Z,14.70
2022-10-09T19:51:43.570Z,14.80
2022-10-09T19:54:45.451Z,14.70
2022-10-09T19:57:47.687Z,14.70
2022-10-09T20:00:49.668Z,14.70
2022-10-09T20:04:01.599Z,14.70
2022-10-09T20:07:03.526Z,14.60
2022-10-09T20:10:05.837Z,14.70
2022-10-09T20:13:07.741Z,14.70
2022-10-09T20:16:13.364Z,14.60
2022-10-09T20:19:15.288Z,14.70
2022-10-09T20:22:17.226Z,14.70
2022-10-09T20:25:19.316Z,14.60
2022-10-09T20:28:21.338Z,14.60
2022-10-09T20:31:25.772Z,14.50
2022-10-09T20:34:27.804Z,14.40
2022-10-09T20:37:29.641Z,14.40
2022-10-09T20:40:33.592Z,14.40
2022-10-09T20:43:36.768Z,14.30
2022-10-09T20:46:40.351Z,14.30
2022-10-09T20:49:42.372Z,14.20
2022-10-09T20:52:44.287Z,14.20
2022-10-09T20:55:46.139Z,14.30
2022-10-09T20:58:48.270Z,14.20
2022-10-09T21:01:50.240Z,14.20
2022-10-09T21:04:52.168Z,14.10
2022-10-09T21:07:56.520Z,14.00
2022-10-09T21:10:58.631Z,13.90
2022-10-09T21:14:01.399Z,14.00
2022-10-09T21:17:03.361Z,13.90
2022-10-09T21:20:05.505Z,13.90
2022-10-09T21:23:08.285Z,13.90
2022-10-09T21:26:15.804Z,13.90
2022-10-09T21:29:17.689Z,13.80
2022-10-09T21:32:21.887Z,13.70
2022-10-09T21:35:24.164Z,13.80
2022-10-09T21:38:26.223Z,13.60
2022-10-09T21:41:28.519Z,13.60
2022-10-09T21:44:30.468Z,13.50
2022-10-09T21:47:32.387Z,13.50
2022-10-09T21:50:35.041Z,13.40
2022-10-09T21:53:36.892Z,13.30
2022-10-09T21:56:38.747Z,13.40
2022-10-09T21:59:40.796Z,13.40
2022-10-09T22:02:42.727Z,13.30
2022-10-09T22:05:44.664Z,13.20
2022-10-09T22:08:46.707Z,13.30
2022-10-09T22:11:48.687Z,13.20
2022-10-09T22:14:50.638Z,13.20
2022-10-09T22:17:52.494Z,13.20
2022-10-09T22:20:56.849Z,13.00
2022-10-09T22:24:00.404Z,13.10
2022-10-09T22:27:02.307Z,13.00
2022-10-09T22:30:04.875Z,13.20
2022-10-09T22:33:06.866Z,13.00
2022-10-09T22:36:14.510Z,13.00
2022-10-09T22:39:16.664Z,12.90
2022-10-09T22:42:18.953Z,12.90
2022-10-09T22:45:20.904Z,12.90
2022-10-09T22:48:22.999Z,12.80
2022-10-09T22:51:26.677Z,12.70
2022-10-09T22:54:28.555Z,12.70
2022-10-09T22:57:30.453Z,12.70
2022-10-09T23:00:36.525Z,12.60
2022-10-09T23:03:38.436Z,12.50
2022-10-09T23:06:41.519Z,12.50
2022-10-09T23:09:43.577Z,12.50
2022-10-09T23:12:48.013Z,12.50
2022-10-09T23:15:50.096Z,12.40
2022-10-09T23:18:52.018Z,12.30
2022-10-09T23:21:53.925Z,12.20
2022-10-09T23:24:55.829Z,12.00
2022-10-09T23:27:57.750Z,11.90
2022-10-09T23:31:11.560Z,12.00
2022-10-09T23:34:13.504Z,11.90
2022-10-09T23:37:15.357Z,11.70
2022-10-09T23:40:17.250Z,11.80
2022-10-09T23:43:19.114Z,11.80
2022-10-09T23:46:23.833Z,11.90
2022-10-09T23:49:25.687Z,12.00
2022-10-09T23:52:27.606Z,11.90
2022-10-09T23:55:29.463Z,11.90
2022-10-09T23:58:31.397Z,11.90
